Aviation Digital Data Service (ADDS)

Output produced by METARs form (0312 UTC 01 October 2016)
found at http://aviationweather.gov/adds/metars/
 
KPBG 302331Z 0100/0124 VRB03KT P6SM OVC120 
     FM011700 13008KT P6SM VCSH OVC080